Aérodrome :
LOGIN :

S'inscrire | Disclaimer

   EN    FR    IT 

 










Légende :    VFR   VFR Marginal   IFR   IFR Intensif   IFR Très Intensif
Visi : 
Plafond : 
>= 8 km
>= 3000ft
5 à 8 km
1000 à 3000 ft
1500m à 5 km
500 à 1000 ft
800 à 1500m
200 à 500 ft
< 800m
< 200 ft
Symboles :   Orages  Brouillard  Fortes neiges  Fortes précipitations  Vent > 20 kt
SIGMETs :   Divers  Orages  Givrage  Turbulence  Onde Orograph.  Cendres Volcan.






- Altitude de l'aérodrome : 76 ft
- Code IATA : AKT


LCRA - Akrotiri AB

DERNIER METAR :
  • 091650Z 28005KT 9999 FEW020CB 16/11 Q1011 NOSIG

METARs EXPIRÉS :
  • 091620Z 27007KT 9999 FEW020CB 16/11 Q1011 NOSIG
  • 091550Z 26009KT 9999 FEW022CB SCT030 17/11 Q1011 NOSIG
  • 091524Z 26009KT 9999 FEW020CB SCT250 17/11 Q1011 NOSIG
  • 091442Z 26011KT 9999 TS FEW020CB FEW022TCU BKN250 17/11 Q1011 NOSIG
  • 091423Z 25012KT 9999 FEW020CB FEW022TCU BKN250 18/12 Q1011 TEMPO TS
  • 091350Z 24011KT 9999 FEW018CB FEW020TCU SCT250 17/12 Q1011 NOSIG

TAF TAF LCRA
Valide du 09 à 15h jusqu'au 10 à 09h UTC


091327Z 0915/1009 26008KT 9999 FEW020
PROB30
TEMPO 0915/0920 4000 TSRA BKN020CB
PROB30
TEMPO 1007/1009 4000 TSRA BKN022CB



MET'MAP, la Météo Aéronautique d'un coup d'oeil ! - Copyright ORBIFLY Décembre 2007 - Disclaimer

ORBIFLY MET'MAP TEAM :

Programmation & Développement : Alexandra Zaïnal
Sur une idée originale de : Baudouin d'Aumeries
Assistance à la programmation : Marc-Olivier Méhu
Soutien technique & logistique : Manuel Goepfert

Contact : metmap@orbifly.com




SOURCES & CREDITS :

   NOAA